sensor_id;sensor_type;location;lat;lon;timestamp;P1;durP1;ratioP1;P2;durP2;ratioP2
78834;SDS011;68187;42.682;23.352;2023-04-24T00:01:53;9.07;;;4.13;;
78834;SDS011;68187;42.682;23.352;2023-04-24T00:04:22;6.28;;;3.88;;
78834;SDS011;68187;42.682;23.352;2023-04-24T00:06:51;5.45;;;3.08;;
78834;SDS011;68187;42.682;23.352;2023-04-24T00:09:19;8.80;;;4.10;;
78834;SDS011;68187;42.682;23.352;2023-04-24T00:11:46;8.50;;;3.33;;
78834;SDS011;68187;42.682;23.352;2023-04-24T00:14:13;7.10;;;4.20;;
78834;SDS011;68187;42.682;23.352;2023-04-24T00:16:39;8.02;;;4.20;;
78834;SDS011;68187;42.682;23.352;2023-04-24T00:19:06;7.85;;;4.05;;
78834;SDS011;68187;42.682;23.352;2023-04-24T00:21:34;10.07;;;4.05;;
78834;SDS011;68187;42.682;23.352;2023-04-24T00:24:01;9.10;;;4.47;;
78834;SDS011;68187;42.682;23.352;2023-04-24T00:26:28;8.30;;;4.43;;
78834;SDS011;68187;42.682;23.352;2023-04-24T00:28:55;6.68;;;3.47;;
78834;SDS011;68187;42.682;23.352;2023-04-24T00:31:21;9.65;;;4.30;;
78834;SDS011;68187;42.682;23.352;2023-04-24T00:33:48;7.13;;;3.63;;
78834;SDS011;68187;42.682;23.352;2023-04-24T00:36:15;8.88;;;4.38;;
78834;SDS011;68187;42.682;23.352;2023-04-24T00:38:43;8.00;;;4.38;;
78834;SDS011;68187;42.682;23.352;2023-04-24T00:41:10;8.60;;;3.70;;
78834;SDS011;68187;42.682;23.352;2023-04-24T00:43:37;10.93;;;4.90;;
78834;SDS011;68187;42.682;23.352;2023-04-24T00:46:05;8.52;;;4.15;;
78834;SDS011;68187;42.682;23.352;2023-04-24T00:48:32;7.97;;;4.75;;
78834;SDS011;68187;42.682;23.352;2023-04-24T00:50:59;7.15;;;3.90;;
78834;SDS011;68187;42.682;23.352;2023-04-24T00:53:26;13.10;;;6.30;;
78834;SDS011;68187;42.682;23.352;2023-04-24T00:55:54;8.40;;;3.78;;
78834;SDS011;68187;42.682;23.352;2023-04-24T00:58:21;8.25;;;4.43;;
78834;SDS011;68187;42.682;23.352;2023-04-24T01:00:49;7.30;;;4.47;;
78834;SDS011;68187;42.682;23.352;2023-04-24T01:03:19;9.60;;;5.13;;
78834;SDS011;68187;42.682;23.352;2023-04-24T01:05:47;9.00;;;4.60;;
78834;SDS011;68187;42.682;23.352;2023-04-24T01:08:15;9.02;;;5.22;;
78834;SDS011;68187;42.682;23.352;2023-04-24T01:10:42;8.55;;;3.65;;
78834;SDS011;68187;42.682;23.352;2023-04-24T01:13:15;7.10;;;3.13;;
78834;SDS011;68187;42.682;23.352;2023-04-24T01:15:42;9.10;;;4.22;;
78834;SDS011;68187;42.682;23.352;2023-04-24T01:18:09;8.20;;;4.43;;
78834;SDS011;68187;42.682;23.352;2023-04-24T01:20:35;7.25;;;4.32;;
78834;SDS011;68187;42.682;23.352;2023-04-24T01:23:06;7.43;;;4.18;;
78834;SDS011;68187;42.682;23.352;2023-04-24T01:25:33;6.28;;;3.85;;
78834;SDS011;68187;42.682;23.352;2023-04-24T01:28:00;8.02;;;4.05;;
78834;SDS011;68187;42.682;23.352;2023-04-24T01:30:27;11.50;;;5.00;;
78834;SDS011;68187;42.682;23.352;2023-04-24T01:32:54;7.88;;;4.18;;
78834;SDS011;68187;42.682;23.352;2023-04-24T01:35:21;6.93;;;4.15;;
78834;SDS011;68187;42.682;23.352;2023-04-24T01:37:48;6.93;;;3.88;;
78834;SDS011;68187;42.682;23.352;2023-04-24T01:40:17;8.48;;;5.63;;
78834;SDS011;68187;42.682;23.352;2023-04-24T01:42:43;8.05;;;4.57;;
78834;SDS011;68187;42.682;23.352;2023-04-24T01:45:11;8.13;;;4.90;;
78834;SDS011;68187;42.682;23.352;2023-04-24T01:47:39;10.85;;;4.50;;
78834;SDS011;68187;42.682;23.352;2023-04-24T01:50:06;7.28;;;4.07;;
78834;SDS011;68187;42.682;23.352;2023-04-24T01:52:33;10.18;;;4.30;;
78834;SDS011;68187;42.682;23.352;2023-04-24T01:55:01;8.70;;;4.72;;
78834;SDS011;68187;42.682;23.352;2023-04-24T01:57:30;7.60;;;4.20;;
78834;SDS011;68187;42.682;23.352;2023-04-24T01:59:57;7.03;;;4.47;;
78834;SDS011;68187;42.682;23.352;2023-04-24T02:02:24;9.70;;;5.10;;
78834;SDS011;68187;42.682;23.352;2023-04-24T02:04:52;6.95;;;4.30;;
78834;SDS011;68187;42.682;23.352;2023-04-24T02:07:19;8.73;;;4.95;;
78834;SDS011;68187;42.682;23.352;2023-04-24T02:09:46;10.63;;;6.30;;
78834;SDS011;68187;42.682;23.352;2023-04-24T02:12:13;10.75;;;4.50;;
78834;SDS011;68187;42.682;23.352;2023-04-24T02:14:41;8.80;;;4.78;;
78834;SDS011;68187;42.682;23.352;2023-04-24T02:17:08;9.95;;;5.20;;
78834;SDS011;68187;42.682;23.352;2023-04-24T02:19:38;10.82;;;5.25;;
78834;SDS011;68187;42.682;23.352;2023-04-24T02:22:05;9.90;;;4.82;;
78834;SDS011;68187;42.682;23.352;2023-04-24T02:24:32;8.38;;;5.38;;
78834;SDS011;68187;42.682;23.352;2023-04-24T02:26:58;9.85;;;5.50;;
78834;SDS011;68187;42.682;23.352;2023-04-24T02:29:27;11.23;;;5.97;;
78834;SDS011;68187;42.682;23.352;2023-04-24T02:31:55;12.35;;;5.65;;
78834;SDS011;68187;42.682;23.352;2023-04-24T02:34:21;9.80;;;6.50;;
78834;SDS011;68187;42.682;23.352;2023-04-24T02:36:48;12.90;;;6.03;;
78834;SDS011;68187;42.682;23.352;2023-04-24T02:39:15;8.77;;;4.68;;
78834;SDS011;68187;42.682;23.352;2023-04-24T02:41:42;9.93;;;5.47;;
78834;SDS011;68187;42.682;23.352;2023-04-24T02:44:09;9.02;;;6.40;;
78834;SDS011;68187;42.682;23.352;2023-04-24T02:46:36;9.27;;;6.30;;
78834;SDS011;68187;42.682;23.352;2023-04-24T02:49:04;10.38;;;6.20;;
78834;SDS011;68187;42.682;23.352;2023-04-24T02:51:31;10.43;;;7.13;;
78834;SDS011;68187;42.682;23.352;2023-04-24T02:53:57;10.30;;;5.93;;
78834;SDS011;68187;42.682;23.352;2023-04-24T02:56:24;11.43;;;5.72;;
78834;SDS011;68187;42.682;23.352;2023-04-24T02:58:51;10.45;;;6.40;;
78834;SDS011;68187;42.682;23.352;2023-04-24T03:01:18;12.25;;;5.78;;
78834;SDS011;68187;42.682;23.352;2023-04-24T03:03:45;11.68;;;6.82;;
78834;SDS011;68187;42.682;23.352;2023-04-24T03:06:13;11.40;;;5.65;;
78834;SDS011;68187;42.682;23.352;2023-04-24T03:08:40;9.73;;;6.40;;
78834;SDS011;68187;42.682;23.352;2023-04-24T03:11:07;11.57;;;7.07;;
78834;SDS011;68187;42.682;23.352;2023-04-24T03:13:34;13.82;;;6.72;;
78834;SDS011;68187;42.682;23.352;2023-04-24T03:16:01;13.70;;;7.03;;
78834;SDS011;68187;42.682;23.352;2023-04-24T03:18:28;12.73;;;6.60;;
78834;SDS011;68187;42.682;23.352;2023-04-24T03:20:55;10.00;;;6.53;;
78834;SDS011;68187;42.682;23.352;2023-04-24T03:23:23;11.80;;;6.55;;
78834;SDS011;68187;42.682;23.352;2023-04-24T03:25:50;12.25;;;6.32;;
78834;SDS011;68187;42.682;23.352;2023-04-24T03:28:17;10.38;;;8.00;;
78834;SDS011;68187;42.682;23.352;2023-04-24T03:30:44;12.63;;;6.75;;
78834;SDS011;68187;42.682;23.352;2023-04-24T03:33:11;11.57;;;6.50;;
78834;SDS011;68187;42.682;23.352;2023-04-24T03:35:38;11.68;;;6.22;;
78834;SDS011;68187;42.682;23.352;2023-04-24T03:38:05;13.00;;;7.68;;
78834;SDS011;68187;42.682;23.352;2023-04-24T03:40:33;15.40;;;8.15;;
78834;SDS011;68187;42.682;23.352;2023-04-24T03:43:00;10.88;;;7.00;;
78834;SDS011;68187;42.682;23.352;2023-04-24T03:45:27;11.98;;;6.90;;
78834;SDS011;68187;42.682;23.352;2023-04-24T03:47:54;12.85;;;6.38;;
78834;SDS011;68187;42.682;23.352;2023-04-24T03:50:21;10.30;;;6.93;;
78834;SDS011;68187;42.682;23.352;2023-04-24T03:52:48;13.02;;;6.15;;
78834;SDS011;68187;42.682;23.352;2023-04-24T03:55:14;14.02;;;6.50;;
78834;SDS011;68187;42.682;23.352;2023-04-24T03:57:43;13.23;;;6.75;;
78834;SDS011;68187;42.682;23.352;2023-04-24T04:00:10;10.93;;;6.82;;
78834;SDS011;68187;42.682;23.352;2023-04-24T04:02:38;10.82;;;6.30;;
78834;SDS011;68187;42.682;23.352;2023-04-24T04:05:04;13.02;;;7.78;;
78834;SDS011;68187;42.682;23.352;2023-04-24T04:07:31;12.88;;;6.32;;
78834;SDS011;68187;42.682;23.352;2023-04-24T04:09:58;10.80;;;7.22;;
78834;SDS011;68187;42.682;23.352;2023-04-24T04:12:25;9.60;;;5.68;;
78834;SDS011;68187;42.682;23.352;2023-04-24T04:14:53;12.00;;;5.47;;
78834;SDS011;68187;42.682;23.352;2023-04-24T04:17:20;8.85;;;4.60;;
78834;SDS011;68187;42.682;23.352;2023-04-24T04:19:46;10.00;;;5.15;;
78834;SDS011;68187;42.682;23.352;2023-04-24T04:22:13;9.63;;;5.90;;
78834;SDS011;68187;42.682;23.352;2023-04-24T04:24:40;9.27;;;4.53;;
78834;SDS011;68187;42.682;23.352;2023-04-24T04:27:06;8.82;;;6.28;;
78834;SDS011;68187;42.682;23.352;2023-04-24T04:29:34;7.50;;;4.38;;
78834;SDS011;68187;42.682;23.352;2023-04-24T04:32:02;11.32;;;4.88;;
78834;SDS011;68187;42.682;23.352;2023-04-24T04:34:29;6.18;;;4.22;;
78834;SDS011;68187;42.682;23.352;2023-04-24T04:36:56;9.88;;;4.50;;
78834;SDS011;68187;42.682;23.352;2023-04-24T04:39:26;7.32;;;3.83;;
78834;SDS011;68187;42.682;23.352;2023-04-24T04:41:53;7.15;;;4.38;;
78834;SDS011;68187;42.682;23.352;2023-04-24T04:44:20;8.82;;;4.28;;
78834;SDS011;68187;42.682;23.352;2023-04-24T04:46:47;7.55;;;4.50;;
78834;SDS011;68187;42.682;23.352;2023-04-24T04:49:15;9.20;;;6.38;;
78834;SDS011;68187;42.682;23.352;2023-04-24T04:51:42;7.10;;;4.63;;
78834;SDS011;68187;42.682;23.352;2023-04-24T04:54:10;7.88;;;4.35;;
78834;SDS011;68187;42.682;23.352;2023-04-24T04:56:36;8.05;;;4.65;;
78834;SDS011;68187;42.682;23.352;2023-04-24T04:59:03;9.45;;;5.93;;
78834;SDS011;68187;42.682;23.352;2023-04-24T05:01:31;10.45;;;4.85;;
78834;SDS011;68187;42.682;23.352;2023-04-24T05:03:58;7.78;;;4.15;;
78834;SDS011;68187;42.682;23.352;2023-04-24T05:06:26;9.48;;;4.82;;
78834;SDS011;68187;42.682;23.352;2023-04-24T05:08:53;11.50;;;5.45;;
78834;SDS011;68187;42.682;23.352;2023-04-24T05:11:22;7.68;;;5.95;;
78834;SDS011;68187;42.682;23.352;2023-04-24T05:13:49;8.15;;;4.53;;
78834;SDS011;68187;42.682;23.352;2023-04-24T05:16:15;10.50;;;5.60;;
78834;SDS011;68187;42.682;23.352;2023-04-24T05:18:42;10.63;;;5.70;;
78834;SDS011;68187;42.682;23.352;2023-04-24T05:21:09;12.27;;;5.40;;
78834;SDS011;68187;42.682;23.352;2023-04-24T05:23:37;8.85;;;5.18;;
78834;SDS011;68187;42.682;23.352;2023-04-24T05:26:04;9.65;;;5.45;;
78834;SDS011;68187;42.682;23.352;2023-04-24T05:28:31;10.88;;;5.82;;
78834;SDS011;68187;42.682;23.352;2023-04-24T05:30:58;12.40;;;5.57;;
78834;SDS011;68187;42.682;23.352;2023-04-24T05:33:26;11.93;;;6.25;;
78834;SDS011;68187;42.682;23.352;2023-04-24T05:35:52;11.00;;;5.78;;
78834;SDS011;68187;42.682;23.352;2023-04-24T05:38:19;14.88;;;6.90;;
78834;SDS011;68187;42.682;23.352;2023-04-24T05:40:47;17.42;;;6.78;;
78834;SDS011;68187;42.682;23.352;2023-04-24T05:43:14;12.90;;;7.15;;
78834;SDS011;68187;42.682;23.352;2023-04-24T05:45:41;14.90;;;7.65;;
78834;SDS011;68187;42.682;23.352;2023-04-24T05:48:08;12.55;;;6.70;;
78834;SDS011;68187;42.682;23.352;2023-04-24T05:50:34;13.18;;;7.95;;
78834;SDS011;68187;42.682;23.352;2023-04-24T05:53:01;13.38;;;6.70;;
78834;SDS011;68187;42.682;23.352;2023-04-24T05:55:30;11.13;;;6.82;;
78834;SDS011;68187;42.682;23.352;2023-04-24T05:57:59;16.27;;;7.95;;
78834;SDS011;68187;42.682;23.352;2023-04-24T06:00:25;11.68;;;7.18;;
78834;SDS011;68187;42.682;23.352;2023-04-24T06:02:53;11.48;;;7.15;;
78834;SDS011;68187;42.682;23.352;2023-04-24T06:05:20;12.73;;;7.03;;
78834;SDS011;68187;42.682;23.352;2023-04-24T06:07:47;12.18;;;6.45;;
78834;SDS011;68187;42.682;23.352;2023-04-24T06:10:14;12.85;;;6.93;;
78834;SDS011;68187;42.682;23.352;2023-04-24T06:12:41;13.80;;;8.73;;
78834;SDS011;68187;42.682;23.352;2023-04-24T06:15:09;14.82;;;7.10;;
78834;SDS011;68187;42.682;23.352;2023-04-24T06:17:36;14.00;;;7.72;;
78834;SDS011;68187;42.682;23.352;2023-04-24T06:20:03;11.77;;;6.68;;
78834;SDS011;68187;42.682;23.352;2023-04-24T06:22:32;12.88;;;6.95;;
78834;SDS011;68187;42.682;23.352;2023-04-24T06:24:59;14.60;;;7.72;;
78834;SDS011;68187;42.682;23.352;2023-04-24T06:27:26;16.95;;;10.50;;
78834;SDS011;68187;42.682;23.352;2023-04-24T06:29:53;17.33;;;9.13;;
78834;SDS011;68187;42.682;23.352;2023-04-24T06:32:22;14.23;;;8.45;;
78834;SDS011;68187;42.682;23.352;2023-04-24T06:34:50;12.52;;;7.65;;
78834;SDS011;68187;42.682;23.352;2023-04-24T06:37:17;13.20;;;9.88;;
78834;SDS011;68187;42.682;23.352;2023-04-24T06:39:45;11.23;;;7.05;;
78834;SDS011;68187;42.682;23.352;2023-04-24T06:42:12;17.13;;;7.47;;
78834;SDS011;68187;42.682;23.352;2023-04-24T06:44:39;11.55;;;8.02;;
78834;SDS011;68187;42.682;23.352;2023-04-24T06:47:07;13.30;;;8.10;;
78834;SDS011;68187;42.682;23.352;2023-04-24T06:49:36;12.95;;;7.75;;
78834;SDS011;68187;42.682;23.352;2023-04-24T06:52:03;12.27;;;8.32;;
78834;SDS011;68187;42.682;23.352;2023-04-24T06:54:30;13.27;;;7.60;;
78834;SDS011;68187;42.682;23.352;2023-04-24T06:56:57;16.83;;;7.55;;
78834;SDS011;68187;42.682;23.352;2023-04-24T06:59:25;13.13;;;7.72;;
78834;SDS011;68187;42.682;23.352;2023-04-24T07:01:52;18.30;;;8.05;;
78834;SDS011;68187;42.682;23.352;2023-04-24T07:04:19;13.45;;;7.78;;
78834;SDS011;68187;42.682;23.352;2023-04-24T07:06:47;13.18;;;7.63;;
78834;SDS011;68187;42.682;23.352;2023-04-24T07:09:16;13.85;;;7.90;;
78834;SDS011;68187;42.682;23.352;2023-04-24T07:11:43;11.98;;;8.65;;
78834;SDS011;68187;42.682;23.352;2023-04-24T07:14:10;15.63;;;8.60;;
78834;SDS011;68187;42.682;23.352;2023-04-24T07:16:37;12.32;;;9.10;;
78834;SDS011;68187;42.682;23.352;2023-04-24T07:19:04;12.13;;;8.27;;
78834;SDS011;68187;42.682;23.352;2023-04-24T07:21:31;14.80;;;8.93;;
78834;SDS011;68187;42.682;23.352;2023-04-24T07:23:59;14.45;;;8.88;;
78834;SDS011;68187;42.682;23.352;2023-04-24T07:26:26;14.15;;;8.43;;
78834;SDS011;68187;42.682;23.352;2023-04-24T07:28:53;11.68;;;7.03;;
78834;SDS011;68187;42.682;23.352;2023-04-24T07:31:20;13.68;;;7.25;;
78834;SDS011;68187;42.682;23.352;2023-04-24T07:33:47;11.88;;;7.22;;
78834;SDS011;68187;42.682;23.352;2023-04-24T07:36:14;11.43;;;8.90;;
78834;SDS011;68187;42.682;23.352;2023-04-24T07:38:44;11.02;;;7.43;;
78834;SDS011;68187;42.682;23.352;2023-04-24T07:41:12;12.65;;;7.38;;
78834;SDS011;68187;42.682;23.352;2023-04-24T07:43:39;10.55;;;6.65;;
78834;SDS011;68187;42.682;23.352;2023-04-24T07:46:06;13.60;;;6.68;;
78834;SDS011;68187;42.682;23.352;2023-04-24T07:48:33;10.68;;;6.65;;
78834;SDS011;68187;42.682;23.352;2023-04-24T07:51:00;8.77;;;5.45;;
78834;SDS011;68187;42.682;23.352;2023-04-24T07:53:27;15.73;;;7.70;;
78834;SDS011;68187;42.682;23.352;2023-04-24T07:55:53;13.75;;;7.00;;
78834;SDS011;68187;42.682;23.352;2023-04-24T07:58:22;10.75;;;6.28;;
78834;SDS011;68187;42.682;23.352;2023-04-24T08:00:49;12.30;;;6.93;;
78834;SDS011;68187;42.682;23.352;2023-04-24T08:03:16;9.63;;;5.85;;
78834;SDS011;68187;42.682;23.352;2023-04-24T08:05:44;12.43;;;6.72;;
78834;SDS011;68187;42.682;23.352;2023-04-24T08:08:11;12.32;;;6.38;;
78834;SDS011;68187;42.682;23.352;2023-04-24T08:10:38;13.07;;;6.60;;
78834;SDS011;68187;42.682;23.352;2023-04-24T08:13:05;11.40;;;6.90;;
78834;SDS011;68187;42.682;23.352;2023-04-24T08:15:34;9.15;;;5.68;;
78834;SDS011;68187;42.682;23.352;2023-04-24T08:18:00;10.75;;;5.93;;
78834;SDS011;68187;42.682;23.352;2023-04-24T08:20:27;10.73;;;6.25;;
78834;SDS011;68187;42.682;23.352;2023-04-24T08:22:54;11.88;;;7.05;;
78834;SDS011;68187;42.682;23.352;2023-04-24T08:25:21;11.27;;;6.65;;
78834;SDS011;68187;42.682;23.352;2023-04-24T08:27:49;9.23;;;5.28;;
78834;SDS011;68187;42.682;23.352;2023-04-24T08:30:16;10.88;;;5.32;;
78834;SDS011;68187;42.682;23.352;2023-04-24T08:32:45;9.73;;;5.32;;
78834;SDS011;68187;42.682;23.352;2023-04-24T08:35:11;11.80;;;6.32;;
78834;SDS011;68187;42.682;23.352;2023-04-24T08:37:38;9.45;;;7.13;;
78834;SDS011;68187;42.682;23.352;2023-04-24T08:40:06;8.15;;;6.22;;
78834;SDS011;68187;42.682;23.352;2023-04-24T08:42:39;9.00;;;4.68;;
78834;SDS011;68187;42.682;23.352;2023-04-24T08:45:08;13.10;;;4.85;;
78834;SDS011;68187;42.682;23.352;2023-04-24T08:47:37;12.23;;;7.13;;
78834;SDS011;68187;42.682;23.352;2023-04-24T08:50:06;9.20;;;5.53;;
78834;SDS011;68187;42.682;23.352;2023-04-24T08:52:34;9.48;;;5.32;;
78834;SDS011;68187;42.682;23.352;2023-04-24T08:55:01;8.68;;;5.38;;
78834;SDS011;68187;42.682;23.352;2023-04-24T08:57:29;8.27;;;4.57;;
78834;SDS011;68187;42.682;23.352;2023-04-24T08:59:57;8.90;;;5.10;;
78834;SDS011;68187;42.682;23.352;2023-04-24T09:02:24;9.70;;;6.57;;
78834;SDS011;68187;42.682;23.352;2023-04-24T09:04:52;9.88;;;5.43;;
78834;SDS011;68187;42.682;23.352;2023-04-24T09:07:26;9.88;;;5.28;;
78834;SDS011;68187;42.682;23.352;2023-04-24T09:09:56;7.07;;;4.25;;
78834;SDS011;68187;42.682;23.352;2023-04-24T09:12:25;9.05;;;5.40;;
78834;SDS011;68187;42.682;23.352;2023-04-24T09:14:52;7.60;;;5.40;;
78834;SDS011;68187;42.682;23.352;2023-04-24T09:17:20;9.07;;;4.72;;
78834;SDS011;68187;42.682;23.352;2023-04-24T09:19:47;11.07;;;4.95;;
78834;SDS011;68187;42.682;23.352;2023-04-24T09:22:14;9.45;;;4.15;;
78834;SDS011;68187;42.682;23.352;2023-04-24T09:24:43;7.03;;;4.88;;
78834;SDS011;68187;42.682;23.352;2023-04-24T09:27:11;10.27;;;5.55;;
78834;SDS011;68187;42.682;23.352;2023-04-24T09:29:39;9.65;;;5.80;;
78834;SDS011;68187;42.682;23.352;2023-04-24T09:32:20;8.63;;;5.15;;
78834;SDS011;68187;42.682;23.352;2023-04-24T09:35:04;9.18;;;5.75;;
78834;SDS011;68187;42.682;23.352;2023-04-24T09:37:34;7.20;;;4.63;;
78834;SDS011;68187;42.682;23.352;2023-04-24T09:40:13;9.57;;;6.00;;
78834;SDS011;68187;42.682;23.352;2023-04-24T09:42:43;9.82;;;4.53;;
78834;SDS011;68187;42.682;23.352;2023-04-24T09:45:11;8.07;;;4.57;;
78834;SDS011;68187;42.682;23.352;2023-04-24T09:47:38;10.25;;;5.15;;
78834;SDS011;68187;42.682;23.352;2023-04-24T09:50:09;11.30;;;4.78;;
78834;SDS011;68187;42.682;23.352;2023-04-24T09:52:39;10.80;;;4.72;;
78834;SDS011;68187;42.682;23.352;2023-04-24T09:55:10;8.15;;;4.72;;
78834;SDS011;68187;42.682;23.352;2023-04-24T09:57:46;9.05;;;5.32;;
78834;SDS011;68187;42.682;23.352;2023-04-24T10:00:17;9.00;;;4.53;;
78834;SDS011;68187;42.682;23.352;2023-04-24T10:02:49;16.33;;;6.10;;
78834;SDS011;68187;42.682;23.352;2023-04-24T10:05:17;7.53;;;4.30;;
78834;SDS011;68187;42.682;23.352;2023-04-24T10:07:44;12.00;;;5.28;;
78834;SDS011;68187;42.682;23.352;2023-04-24T10:10:12;8.95;;;4.63;;
78834;SDS011;68187;42.682;23.352;2023-04-24T10:12:40;8.85;;;4.18;;
78834;SDS011;68187;42.682;23.352;2023-04-24T10:15:07;7.40;;;4.07;;
78834;SDS011;68187;42.682;23.352;2023-04-24T10:17:37;6.78;;;3.35;;
78834;SDS011;68187;42.682;23.352;2023-04-24T10:20:05;11.65;;;4.60;;
78834;SDS011;68187;42.682;23.352;2023-04-24T10:22:33;8.52;;;3.90;;
78834;SDS011;68187;42.682;23.352;2023-04-24T10:25:00;9.15;;;5.80;;
78834;SDS011;68187;42.682;23.352;2023-04-24T10:27:32;13.25;;;4.25;;
78834;SDS011;68187;42.682;23.352;2023-04-24T10:30:00;9.07;;;6.10;;
78834;SDS011;68187;42.682;23.352;2023-04-24T10:32:28;7.47;;;5.80;;
78834;SDS011;68187;42.682;23.352;2023-04-24T10:34:55;7.20;;;3.75;;
78834;SDS011;68187;42.682;23.352;2023-04-24T10:37:22;9.45;;;4.30;;
78834;SDS011;68187;42.682;23.352;2023-04-24T10:39:49;7.88;;;3.88;;
78834;SDS011;68187;42.682;23.352;2023-04-24T10:42:19;9.55;;;4.63;;
78834;SDS011;68187;42.682;23.352;2023-04-24T10:44:48;9.15;;;4.13;;
78834;SDS011;68187;42.682;23.352;2023-04-24T10:47:15;10.02;;;5.72;;
78834;SDS011;68187;42.682;23.352;2023-04-24T10:49:42;8.77;;;5.28;;
78834;SDS011;68187;42.682;23.352;2023-04-24T10:52:09;7.15;;;4.38;;
78834;SDS011;68187;42.682;23.352;2023-04-24T10:54:41;7.88;;;4.75;;
78834;SDS011;68187;42.682;23.352;2023-04-24T10:57:26;7.40;;;4.20;;
78834;SDS011;68187;42.682;23.352;2023-04-24T11:00:15;7.32;;;3.40;;
78834;SDS011;68187;42.682;23.352;2023-04-24T11:02:45;10.18;;;4.40;;
78834;SDS011;68187;42.682;23.352;2023-04-24T11:05:15;7.90;;;4.00;;
78834;SDS011;68187;42.682;23.352;2023-04-24T11:10:38;7.72;;;4.40;;
78834;SDS011;68187;42.682;23.352;2023-04-24T11:13:10;6.72;;;3.45;;
78834;SDS011;68187;42.682;23.352;2023-04-24T11:15:38;7.13;;;4.28;;
78834;SDS011;68187;42.682;23.352;2023-04-24T11:18:12;7.18;;;3.92;;
78834;SDS011;68187;42.682;23.352;2023-04-24T11:23:08;7.65;;;5.05;;
78834;SDS011;68187;42.682;23.352;2023-04-24T11:25:35;7.88;;;5.60;;
78834;SDS011;68187;42.682;23.352;2023-04-24T11:28:05;6.53;;;4.68;;
78834;SDS011;68187;42.682;23.352;2023-04-24T11:30:32;12.68;;;5.65;;
78834;SDS011;68187;42.682;23.352;2023-04-24T11:33:04;7.28;;;3.60;;
78834;SDS011;68187;42.682;23.352;2023-04-24T11:35:34;6.88;;;3.63;;
78834;SDS011;68187;42.682;23.352;2023-04-24T11:38:05;10.98;;;5.13;;
78834;SDS011;68187;42.682;23.352;2023-04-24T11:40:33;6.68;;;4.80;;
78834;SDS011;68187;42.682;23.352;2023-04-24T11:43:00;7.90;;;3.63;;
78834;SDS011;68187;42.682;23.352;2023-04-24T11:45:27;5.88;;;3.13;;
78834;SDS011;68187;42.682;23.352;2023-04-24T11:47:55;6.25;;;3.20;;
78834;SDS011;68187;42.682;23.352;2023-04-24T11:50:25;6.63;;;2.78;;
78834;SDS011;68187;42.682;23.352;2023-04-24T11:52:54;6.90;;;3.50;;
78834;SDS011;68187;42.682;23.352;2023-04-24T11:55:22;7.43;;;3.67;;
78834;SDS011;68187;42.682;23.352;2023-04-24T11:57:52;7.00;;;4.35;;
78834;SDS011;68187;42.682;23.352;2023-04-24T12:00:22;7.35;;;3.80;;
78834;SDS011;68187;42.682;23.352;2023-04-24T12:02:50;8.38;;;4.43;;
78834;SDS011;68187;42.682;23.352;2023-04-24T12:05:20;7.97;;;4.40;;
78834;SDS011;68187;42.682;23.352;2023-04-24T12:07:49;5.63;;;3.67;;
78834;SDS011;68187;42.682;23.352;2023-04-24T12:10:19;7.72;;;3.90;;
78834;SDS011;68187;42.682;23.352;2023-04-24T12:12:46;7.90;;;4.00;;
78834;SDS011;68187;42.682;23.352;2023-04-24T12:15:15;5.57;;;2.97;;
78834;SDS011;68187;42.682;23.352;2023-04-24T12:17:43;7.97;;;3.22;;
78834;SDS011;68187;42.682;23.352;2023-04-24T12:20:10;6.93;;;3.22;;
78834;SDS011;68187;42.682;23.352;2023-04-24T12:22:44;5.47;;;3.22;;
78834;SDS011;68187;42.682;23.352;2023-04-24T12:25:13;6.70;;;3.83;;
78834;SDS011;68187;42.682;23.352;2023-04-24T12:27:40;8.98;;;5.68;;
78834;SDS011;68187;42.682;23.352;2023-04-24T12:30:09;6.50;;;3.75;;
78834;SDS011;68187;42.682;23.352;2023-04-24T12:32:40;7.82;;;4.80;;
78834;SDS011;68187;42.682;23.352;2023-04-24T12:35:08;7.75;;;3.00;;
78834;SDS011;68187;42.682;23.352;2023-04-24T12:37:35;6.07;;;4.10;;
78834;SDS011;68187;42.682;23.352;2023-04-24T12:40:05;5.45;;;2.80;;
78834;SDS011;68187;42.682;23.352;2023-04-24T12:42:35;5.40;;;4.15;;
78834;SDS011;68187;42.682;23.352;2023-04-24T12:45:09;6.72;;;2.78;;
78834;SDS011;68187;42.682;23.352;2023-04-24T12:47:44;6.82;;;4.90;;
78834;SDS011;68187;42.682;23.352;2023-04-24T12:50:13;4.50;;;2.33;;
78834;SDS011;68187;42.682;23.352;2023-04-24T12:52:40;5.05;;;2.83;;
78834;SDS011;68187;42.682;23.352;2023-04-24T12:55:08;11.25;;;3.22;;
78834;SDS011;68187;42.682;23.352;2023-04-24T12:57:38;4.57;;;2.50;;
78834;SDS011;68187;42.682;23.352;2023-04-24T13:00:06;6.10;;;3.67;;
78834;SDS011;68187;42.682;23.352;2023-04-24T13:02:34;6.68;;;3.22;;
78834;SDS011;68187;42.682;23.352;2023-04-24T13:05:01;8.27;;;3.15;;
78834;SDS011;68187;42.682;23.352;2023-04-24T13:07:28;9.35;;;4.07;;
78834;SDS011;68187;42.682;23.352;2023-04-24T13:09:55;8.05;;;3.33;;
78834;SDS011;68187;42.682;23.352;2023-04-24T13:12:23;7.68;;;4.28;;
78834;SDS011;68187;42.682;23.352;2023-04-24T13:14:52;5.45;;;3.72;;
78834;SDS011;68187;42.682;23.352;2023-04-24T13:17:19;8.40;;;4.18;;
78834;SDS011;68187;42.682;23.352;2023-04-24T13:19:45;6.28;;;4.40;;
78834;SDS011;68187;42.682;23.352;2023-04-24T13:22:12;7.03;;;3.35;;
78834;SDS011;68187;42.682;23.352;2023-04-24T13:24:39;5.90;;;3.90;;
78834;SDS011;68187;42.682;23.352;2023-04-24T13:27:06;6.80;;;4.70;;
78834;SDS011;68187;42.682;23.352;2023-04-24T13:29:34;8.02;;;4.43;;
78834;SDS011;68187;42.682;23.352;2023-04-24T13:32:02;7.97;;;4.65;;
78834;SDS011;68187;42.682;23.352;2023-04-24T13:34:29;6.50;;;3.30;;
78834;SDS011;68187;42.682;23.352;2023-04-24T13:36:56;8.23;;;3.25;;
78834;SDS011;68187;42.682;23.352;2023-04-24T13:39:24;6.30;;;4.63;;
78834;SDS011;68187;42.682;23.352;2023-04-24T13:41:51;5.65;;;3.03;;
78834;SDS011;68187;42.682;23.352;2023-04-24T13:44:18;8.02;;;4.32;;
78834;SDS011;68187;42.682;23.352;2023-04-24T13:46:47;5.30;;;3.17;;
78834;SDS011;68187;42.682;23.352;2023-04-24T13:49:17;5.97;;;4.32;;
78834;SDS011;68187;42.682;23.352;2023-04-24T13:51:44;7.32;;;4.88;;
78834;SDS011;68187;42.682;23.352;2023-04-24T13:54:12;7.72;;;3.08;;
78834;SDS011;68187;42.682;23.352;2023-04-24T13:56:39;8.05;;;3.78;;
78834;SDS011;68187;42.682;23.352;2023-04-24T13:59:06;5.95;;;3.85;;
78834;SDS011;68187;42.682;23.352;2023-04-24T14:01:33;6.75;;;3.60;;
78834;SDS011;68187;42.682;23.352;2023-04-24T14:04:00;7.90;;;4.03;;
78834;SDS011;68187;42.682;23.352;2023-04-24T14:06:28;7.85;;;5.07;;
78834;SDS011;68187;42.682;23.352;2023-04-24T14:08:56;6.78;;;4.15;;
78834;SDS011;68187;42.682;23.352;2023-04-24T14:11:23;6.47;;;3.45;;
78834;SDS011;68187;42.682;23.352;2023-04-24T14:13:50;10.07;;;4.80;;
78834;SDS011;68187;42.682;23.352;2023-04-24T14:16:16;9.80;;;4.55;;
78834;SDS011;68187;42.682;23.352;2023-04-24T14:18:43;7.20;;;4.30;;
78834;SDS011;68187;42.682;23.352;2023-04-24T14:21:10;10.90;;;3.70;;
78834;SDS011;68187;42.682;23.352;2023-04-24T14:23:39;6.32;;;4.05;;
78834;SDS011;68187;42.682;23.352;2023-04-24T14:26:05;6.18;;;4.18;;
78834;SDS011;68187;42.682;23.352;2023-04-24T14:28:32;6.13;;;3.55;;
78834;SDS011;68187;42.682;23.352;2023-04-24T14:30:59;7.63;;;4.80;;
78834;SDS011;68187;42.682;23.352;2023-04-24T14:33:26;4.82;;;2.47;;
78834;SDS011;68187;42.682;23.352;2023-04-24T14:35:53;6.93;;;4.32;;
78834;SDS011;68187;42.682;23.352;2023-04-24T14:38:20;7.97;;;3.80;;